sensor_id;sensor_type;location;lat;lon;timestamp;P1;durP1;ratioP1;P2;durP2;ratioP2
28343;SDS011;15597;50.914;6.638;2023-07-31T00:00:12;5.32;;;1.50;;
28343;SDS011;15597;50.914;6.638;2023-07-31T00:02:38;5.40;;;1.52;;
28343;SDS011;15597;50.914;6.638;2023-07-31T00:05:04;5.30;;;1.67;;
28343;SDS011;15597;50.914;6.638;2023-07-31T00:07:30;4.13;;;1.75;;
28343;SDS011;15597;50.914;6.638;2023-07-31T00:09:55;4.70;;;1.90;;
28343;SDS011;15597;50.914;6.638;2023-07-31T00:12:22;6.53;;;1.90;;
28343;SDS011;15597;50.914;6.638;2023-07-31T00:14:48;4.47;;;1.52;;
28343;SDS011;15597;50.914;6.638;2023-07-31T00:17:14;5.47;;;1.70;;
28343;SDS011;15597;50.914;6.638;2023-07-31T00:19:40;4.82;;;1.63;;
28343;SDS011;15597;50.914;6.638;2023-07-31T00:22:05;3.75;;;1.67;;
28343;SDS011;15597;50.914;6.638;2023-07-31T00:24:31;3.55;;;1.40;;
28343;SDS011;15597;50.914;6.638;2023-07-31T00:26:56;3.47;;;1.70;;
28343;SDS011;15597;50.914;6.638;2023-07-31T00:29:24;4.68;;;1.75;;
28343;SDS011;15597;50.914;6.638;2023-07-31T00:31:50;4.93;;;1.70;;
28343;SDS011;15597;50.914;6.638;2023-07-31T00:34:17;3.60;;;1.70;;
28343;SDS011;15597;50.914;6.638;2023-07-31T00:36:42;4.25;;;1.58;;
28343;SDS011;15597;50.914;6.638;2023-07-31T00:39:08;5.78;;;1.95;;
28343;SDS011;15597;50.914;6.638;2023-07-31T00:41:34;7.22;;;1.77;;
28343;SDS011;15597;50.914;6.638;2023-07-31T00:44:00;4.30;;;1.50;;
28343;SDS011;15597;50.914;6.638;2023-07-31T00:46:26;5.72;;;1.70;;
28343;SDS011;15597;50.914;6.638;2023-07-31T00:48:52;4.47;;;1.67;;
28343;SDS011;15597;50.914;6.638;2023-07-31T00:51:17;5.38;;;1.60;;
28343;SDS011;15597;50.914;6.638;2023-07-31T00:53:43;3.88;;;1.50;;
28343;SDS011;15597;50.914;6.638;2023-07-31T00:56:09;4.70;;;1.67;;
28343;SDS011;15597;50.914;6.638;2023-07-31T00:58:37;4.70;;;1.65;;
28343;SDS011;15597;50.914;6.638;2023-07-31T01:01:03;4.47;;;1.70;;
28343;SDS011;15597;50.914;6.638;2023-07-31T01:03:28;5.18;;;1.50;;
28343;SDS011;15597;50.914;6.638;2023-07-31T01:06:14;6.72;;;1.95;;
28343;SDS011;15597;50.914;6.638;2023-07-31T01:09:02;3.80;;;1.40;;
28343;SDS011;15597;50.914;6.638;2023-07-31T01:11:43;5.72;;;1.73;;
28343;SDS011;15597;50.914;6.638;2023-07-31T01:14:16;3.60;;;1.40;;
28343;SDS011;15597;50.914;6.638;2023-07-31T01:16:42;5.03;;;1.55;;
28343;SDS011;15597;50.914;6.638;2023-07-31T01:19:07;4.57;;;1.67;;
28343;SDS011;15597;50.914;6.638;2023-07-31T01:26:44;5.18;;;1.38;;
28343;SDS011;15597;50.914;6.638;2023-07-31T01:31:56;4.32;;;1.52;;
28343;SDS011;15597;50.914;6.638;2023-07-31T01:34:26;6.38;;;1.50;;
28343;SDS011;15597;50.914;6.638;2023-07-31T01:36:53;5.82;;;1.73;;
28343;SDS011;15597;50.914;6.638;2023-07-31T01:39:19;4.68;;;1.67;;
28343;SDS011;15597;50.914;6.638;2023-07-31T01:41:45;4.40;;;1.60;;
28343;SDS011;15597;50.914;6.638;2023-07-31T01:44:11;5.10;;;1.88;;
28343;SDS011;15597;50.914;6.638;2023-07-31T01:46:37;6.05;;;1.83;;
28343;SDS011;15597;50.914;6.638;2023-07-31T01:49:02;4.75;;;1.70;;
28343;SDS011;15597;50.914;6.638;2023-07-31T01:51:30;3.42;;;1.50;;
28343;SDS011;15597;50.914;6.638;2023-07-31T01:53:59;5.30;;;1.80;;
28343;SDS011;15597;50.914;6.638;2023-07-31T01:56:25;4.53;;;1.58;;
28343;SDS011;15597;50.914;6.638;2023-07-31T01:58:52;4.57;;;1.80;;
28343;SDS011;15597;50.914;6.638;2023-07-31T02:01:17;3.92;;;1.48;;
28343;SDS011;15597;50.914;6.638;2023-07-31T02:03:43;6.38;;;2.10;;
28343;SDS011;15597;50.914;6.638;2023-07-31T02:06:09;3.50;;;1.38;;
28343;SDS011;15597;50.914;6.638;2023-07-31T02:08:35;4.78;;;1.75;;
28343;SDS011;15597;50.914;6.638;2023-07-31T02:11:00;4.35;;;2.15;;
28343;SDS011;15597;50.914;6.638;2023-07-31T02:13:26;4.63;;;1.60;;
28343;SDS011;15597;50.914;6.638;2023-07-31T02:15:51;4.10;;;1.58;;
28343;SDS011;15597;50.914;6.638;2023-07-31T02:18:17;6.63;;;2.00;;
28343;SDS011;15597;50.914;6.638;2023-07-31T02:20:42;4.55;;;1.80;;
28343;SDS011;15597;50.914;6.638;2023-07-31T02:23:12;5.25;;;1.65;;
28343;SDS011;15597;50.914;6.638;2023-07-31T02:25:37;4.53;;;1.63;;
28343;SDS011;15597;50.914;6.638;2023-07-31T02:28:03;4.47;;;1.40;;
28343;SDS011;15597;50.914;6.638;2023-07-31T02:30:28;4.95;;;1.70;;
28343;SDS011;15597;50.914;6.638;2023-07-31T02:32:54;5.68;;;1.90;;
28343;SDS011;15597;50.914;6.638;2023-07-31T02:35:19;5.60;;;1.88;;
28343;SDS011;15597;50.914;6.638;2023-07-31T02:37:45;4.20;;;1.70;;
28343;SDS011;15597;50.914;6.638;2023-07-31T02:40:11;4.40;;;1.67;;
28343;SDS011;15597;50.914;6.638;2023-07-31T02:42:37;4.32;;;1.77;;
28343;SDS011;15597;50.914;6.638;2023-07-31T02:45:02;5.13;;;1.73;;
28343;SDS011;15597;50.914;6.638;2023-07-31T02:47:29;5.53;;;1.90;;
28343;SDS011;15597;50.914;6.638;2023-07-31T02:49:55;5.10;;;1.70;;
28343;SDS011;15597;50.914;6.638;2023-07-31T02:52:21;4.47;;;1.58;;
28343;SDS011;15597;50.914;6.638;2023-07-31T02:54:46;5.72;;;1.70;;
28343;SDS011;15597;50.914;6.638;2023-07-31T02:57:12;6.47;;;2.00;;
28343;SDS011;15597;50.914;6.638;2023-07-31T02:59:37;4.35;;;1.98;;
28343;SDS011;15597;50.914;6.638;2023-07-31T03:02:03;4.25;;;1.70;;
28343;SDS011;15597;50.914;6.638;2023-07-31T03:04:29;7.18;;;1.95;;
28343;SDS011;15597;50.914;6.638;2023-07-31T03:06:55;3.95;;;1.38;;
28343;SDS011;15597;50.914;6.638;2023-07-31T03:09:20;4.70;;;1.75;;
28343;SDS011;15597;50.914;6.638;2023-07-31T03:11:46;3.70;;;1.50;;
28343;SDS011;15597;50.914;6.638;2023-07-31T03:14:11;4.55;;;1.60;;
28343;SDS011;15597;50.914;6.638;2023-07-31T03:16:37;4.18;;;1.60;;
28343;SDS011;15597;50.914;6.638;2023-07-31T03:19:02;3.70;;;1.50;;
28343;SDS011;15597;50.914;6.638;2023-07-31T03:21:28;4.25;;;1.45;;
28343;SDS011;15597;50.914;6.638;2023-07-31T03:23:53;4.53;;;1.83;;
28343;SDS011;15597;50.914;6.638;2023-07-31T03:26:19;5.93;;;2.35;;
28343;SDS011;15597;50.914;6.638;2023-07-31T03:28:45;5.10;;;2.22;;
28343;SDS011;15597;50.914;6.638;2023-07-31T03:31:10;5.10;;;2.25;;
28343;SDS011;15597;50.914;6.638;2023-07-31T03:33:36;5.85;;;2.05;;
28343;SDS011;15597;50.914;6.638;2023-07-31T03:36:02;6.47;;;2.28;;
28343;SDS011;15597;50.914;6.638;2023-07-31T03:41:14;4.82;;;1.80;;
28343;SDS011;15597;50.914;6.638;2023-07-31T03:43:39;5.13;;;1.80;;
28343;SDS011;15597;50.914;6.638;2023-07-31T03:46:05;4.60;;;1.77;;
28343;SDS011;15597;50.914;6.638;2023-07-31T03:48:31;5.03;;;2.00;;
28343;SDS011;15597;50.914;6.638;2023-07-31T03:50:57;4.15;;;1.75;;
28343;SDS011;15597;50.914;6.638;2023-07-31T03:53:22;6.15;;;2.20;;
28343;SDS011;15597;50.914;6.638;2023-07-31T03:55:48;5.85;;;2.10;;
28343;SDS011;15597;50.914;6.638;2023-07-31T03:58:13;3.75;;;1.55;;
28343;SDS011;15597;50.914;6.638;2023-07-31T04:00:39;4.53;;;1.65;;
28343;SDS011;15597;50.914;6.638;2023-07-31T04:03:05;4.97;;;1.90;;
28343;SDS011;15597;50.914;6.638;2023-07-31T04:05:31;5.75;;;1.95;;
28343;SDS011;15597;50.914;6.638;2023-07-31T04:07:57;6.18;;;1.92;;
28343;SDS011;15597;50.914;6.638;2023-07-31T04:10:25;4.25;;;1.60;;
28343;SDS011;15597;50.914;6.638;2023-07-31T04:12:51;4.35;;;1.73;;
28343;SDS011;15597;50.914;6.638;2023-07-31T04:15:17;4.40;;;1.75;;
28343;SDS011;15597;50.914;6.638;2023-07-31T04:17:42;5.32;;;1.80;;
28343;SDS011;15597;50.914;6.638;2023-07-31T04:20:08;5.65;;;1.58;;
28343;SDS011;15597;50.914;6.638;2023-07-31T04:22:34;5.22;;;1.92;;
28343;SDS011;15597;50.914;6.638;2023-07-31T04:24:59;5.63;;;1.80;;
28343;SDS011;15597;50.914;6.638;2023-07-31T04:27:25;4.13;;;1.90;;
28343;SDS011;15597;50.914;6.638;2023-07-31T04:29:50;6.32;;;1.98;;
28343;SDS011;15597;50.914;6.638;2023-07-31T04:32:16;4.13;;;1.75;;
28343;SDS011;15597;50.914;6.638;2023-07-31T04:34:42;5.40;;;1.80;;
28343;SDS011;15597;50.914;6.638;2023-07-31T04:37:07;4.20;;;1.77;;
28343;SDS011;15597;50.914;6.638;2023-07-31T04:39:33;3.85;;;1.45;;
28343;SDS011;15597;50.914;6.638;2023-07-31T04:41:59;4.90;;;1.95;;
28343;SDS011;15597;50.914;6.638;2023-07-31T04:44:24;7.65;;;2.13;;
28343;SDS011;15597;50.914;6.638;2023-07-31T04:46:50;4.00;;;1.90;;
28343;SDS011;15597;50.914;6.638;2023-07-31T04:49:15;5.72;;;1.92;;
28343;SDS011;15597;50.914;6.638;2023-07-31T04:51:41;5.93;;;1.90;;
28343;SDS011;15597;50.914;6.638;2023-07-31T04:54:06;6.05;;;2.22;;
28343;SDS011;15597;50.914;6.638;2023-07-31T04:56:32;6.15;;;1.95;;
28343;SDS011;15597;50.914;6.638;2023-07-31T04:58:57;4.78;;;1.80;;
28343;SDS011;15597;50.914;6.638;2023-07-31T05:01:23;5.70;;;2.00;;
28343;SDS011;15597;50.914;6.638;2023-07-31T05:03:48;4.03;;;1.60;;
28343;SDS011;15597;50.914;6.638;2023-07-31T05:06:14;4.45;;;1.80;;
28343;SDS011;15597;50.914;6.638;2023-07-31T05:08:40;5.13;;;2.00;;
28343;SDS011;15597;50.914;6.638;2023-07-31T05:11:06;5.25;;;1.80;;
28343;SDS011;15597;50.914;6.638;2023-07-31T05:13:31;5.78;;;2.10;;
28343;SDS011;15597;50.914;6.638;2023-07-31T05:15:57;5.45;;;1.60;;
28343;SDS011;15597;50.914;6.638;2023-07-31T05:18:22;4.88;;;2.40;;
28343;SDS011;15597;50.914;6.638;2023-07-31T05:20:48;5.80;;;1.67;;
28343;SDS011;15597;50.914;6.638;2023-07-31T05:23:13;4.47;;;1.70;;
28343;SDS011;15597;50.914;6.638;2023-07-31T05:25:39;4.97;;;1.90;;
28343;SDS011;15597;50.914;6.638;2023-07-31T05:28:05;4.15;;;2.00;;
28343;SDS011;15597;50.914;6.638;2023-07-31T05:30:30;3.72;;;1.60;;
28343;SDS011;15597;50.914;6.638;2023-07-31T05:32:56;4.30;;;1.67;;
28343;SDS011;15597;50.914;6.638;2023-07-31T05:35:22;4.07;;;1.70;;
28343;SDS011;15597;50.914;6.638;2023-07-31T05:37:48;4.00;;;1.50;;
28343;SDS011;15597;50.914;6.638;2023-07-31T05:40:13;4.78;;;2.00;;
28343;SDS011;15597;50.914;6.638;2023-07-31T05:42:39;4.75;;;2.10;;
28343;SDS011;15597;50.914;6.638;2023-07-31T05:45:08;3.92;;;1.70;;
28343;SDS011;15597;50.914;6.638;2023-07-31T05:47:34;6.18;;;1.98;;
28343;SDS011;15597;50.914;6.638;2023-07-31T05:49:59;4.88;;;1.60;;
28343;SDS011;15597;50.914;6.638;2023-07-31T05:52:25;4.38;;;1.90;;
28343;SDS011;15597;50.914;6.638;2023-07-31T05:54:51;4.40;;;2.03;;
28343;SDS011;15597;50.914;6.638;2023-07-31T05:57:16;4.38;;;1.52;;
28343;SDS011;15597;50.914;6.638;2023-07-31T05:59:42;5.22;;;1.60;;
28343;SDS011;15597;50.914;6.638;2023-07-31T06:02:07;7.05;;;2.00;;
28343;SDS011;15597;50.914;6.638;2023-07-31T06:04:33;4.43;;;1.98;;
28343;SDS011;15597;50.914;6.638;2023-07-31T06:06:59;5.65;;;2.10;;
28343;SDS011;15597;50.914;6.638;2023-07-31T06:09:25;5.43;;;2.20;;
28343;SDS011;15597;50.914;6.638;2023-07-31T06:11:51;4.45;;;1.85;;
28343;SDS011;15597;50.914;6.638;2023-07-31T06:14:17;4.53;;;1.90;;
28343;SDS011;15597;50.914;6.638;2023-07-31T06:16:44;4.03;;;1.83;;
28343;SDS011;15597;50.914;6.638;2023-07-31T06:19:09;3.65;;;1.60;;
28343;SDS011;15597;50.914;6.638;2023-07-31T06:21:35;4.05;;;1.60;;
28343;SDS011;15597;50.914;6.638;2023-07-31T06:24:05;5.10;;;1.98;;
28343;SDS011;15597;50.914;6.638;2023-07-31T06:26:31;6.63;;;1.95;;
28343;SDS011;15597;50.914;6.638;2023-07-31T06:28:57;5.82;;;1.90;;
28343;SDS011;15597;50.914;6.638;2023-07-31T06:31:22;4.03;;;1.63;;
28343;SDS011;15597;50.914;6.638;2023-07-31T06:33:49;4.03;;;1.70;;
28343;SDS011;15597;50.914;6.638;2023-07-31T06:36:15;4.55;;;1.92;;
28343;SDS011;15597;50.914;6.638;2023-07-31T06:38:40;3.83;;;1.70;;
28343;SDS011;15597;50.914;6.638;2023-07-31T06:41:06;5.47;;;1.85;;
28343;SDS011;15597;50.914;6.638;2023-07-31T06:43:32;6.10;;;2.03;;
28343;SDS011;15597;50.914;6.638;2023-07-31T06:46:06;4.63;;;1.67;;
28343;SDS011;15597;50.914;6.638;2023-07-31T06:48:33;6.20;;;2.30;;
28343;SDS011;15597;50.914;6.638;2023-07-31T06:51:00;5.32;;;2.15;;
28343;SDS011;15597;50.914;6.638;2023-07-31T06:53:26;5.40;;;1.80;;
28343;SDS011;15597;50.914;6.638;2023-07-31T06:55:51;4.55;;;1.50;;
28343;SDS011;15597;50.914;6.638;2023-07-31T06:58:17;5.70;;;1.85;;
28343;SDS011;15597;50.914;6.638;2023-07-31T07:00:43;3.80;;;1.63;;
28343;SDS011;15597;50.914;6.638;2023-07-31T07:03:09;4.32;;;1.90;;
28343;SDS011;15597;50.914;6.638;2023-07-31T07:05:35;3.70;;;1.50;;
28343;SDS011;15597;50.914;6.638;2023-07-31T07:08:00;5.65;;;1.83;;
28343;SDS011;15597;50.914;6.638;2023-07-31T07:10:26;6.88;;;2.03;;
28343;SDS011;15597;50.914;6.638;2023-07-31T07:12:52;5.57;;;2.00;;
28343;SDS011;15597;50.914;6.638;2023-07-31T07:15:18;4.28;;;1.73;;
28343;SDS011;15597;50.914;6.638;2023-07-31T07:17:44;4.15;;;1.55;;
28343;SDS011;15597;50.914;6.638;2023-07-31T07:20:09;6.72;;;1.90;;
28343;SDS011;15597;50.914;6.638;2023-07-31T07:22:35;6.10;;;2.15;;
28343;SDS011;15597;50.914;6.638;2023-07-31T07:25:01;4.28;;;1.65;;
28343;SDS011;15597;50.914;6.638;2023-07-31T07:27:27;4.45;;;1.75;;
28343;SDS011;15597;50.914;6.638;2023-07-31T07:29:53;3.88;;;1.77;;
28343;SDS011;15597;50.914;6.638;2023-07-31T07:32:21;4.43;;;1.80;;
28343;SDS011;15597;50.914;6.638;2023-07-31T07:34:47;6.20;;;2.20;;
28343;SDS011;15597;50.914;6.638;2023-07-31T07:37:13;4.28;;;1.80;;
28343;SDS011;15597;50.914;6.638;2023-07-31T07:39:39;4.25;;;1.60;;
28343;SDS011;15597;50.914;6.638;2023-07-31T07:42:06;4.35;;;1.80;;
28343;SDS011;15597;50.914;6.638;2023-07-31T07:44:32;4.18;;;1.75;;
28343;SDS011;15597;50.914;6.638;2023-07-31T07:46:57;4.35;;;1.90;;
28343;SDS011;15597;50.914;6.638;2023-07-31T07:49:23;4.50;;;1.95;;
28343;SDS011;15597;50.914;6.638;2023-07-31T07:51:49;5.38;;;2.00;;
28343;SDS011;15597;50.914;6.638;2023-07-31T07:54:15;4.60;;;1.88;;
28343;SDS011;15597;50.914;6.638;2023-07-31T07:56:46;4.55;;;1.90;;
28343;SDS011;15597;50.914;6.638;2023-07-31T07:59:11;4.53;;;1.90;;
28343;SDS011;15597;50.914;6.638;2023-07-31T08:01:37;5.25;;;1.77;;
28343;SDS011;15597;50.914;6.638;2023-07-31T08:04:03;4.20;;;1.60;;
28343;SDS011;15597;50.914;6.638;2023-07-31T08:06:28;3.90;;;1.70;;
28343;SDS011;15597;50.914;6.638;2023-07-31T08:08:55;5.28;;;1.80;;
28343;SDS011;15597;50.914;6.638;2023-07-31T08:11:20;6.00;;;2.00;;
28343;SDS011;15597;50.914;6.638;2023-07-31T08:13:48;4.10;;;1.70;;
28343;SDS011;15597;50.914;6.638;2023-07-31T08:16:14;5.18;;;1.77;;
28343;SDS011;15597;50.914;6.638;2023-07-31T08:18:39;4.30;;;1.80;;
28343;SDS011;15597;50.914;6.638;2023-07-31T08:21:05;4.35;;;1.60;;
28343;SDS011;15597;50.914;6.638;2023-07-31T08:23:31;5.80;;;1.90;;
28343;SDS011;15597;50.914;6.638;2023-07-31T08:25:56;4.40;;;1.90;;
28343;SDS011;15597;50.914;6.638;2023-07-31T08:28:22;4.85;;;1.80;;
28343;SDS011;15597;50.914;6.638;2023-07-31T08:30:48;4.82;;;1.80;;
28343;SDS011;15597;50.914;6.638;2023-07-31T08:33:15;3.65;;;1.40;;
28343;SDS011;15597;50.914;6.638;2023-07-31T08:35:41;3.75;;;1.60;;
28343;SDS011;15597;50.914;6.638;2023-07-31T08:38:06;3.72;;;1.42;;
28343;SDS011;15597;50.914;6.638;2023-07-31T08:40:35;5.03;;;1.92;;
28343;SDS011;15597;50.914;6.638;2023-07-31T08:43:01;4.50;;;1.42;;
28343;SDS011;15597;50.914;6.638;2023-07-31T08:45:27;3.92;;;1.60;;
28343;SDS011;15597;50.914;6.638;2023-07-31T08:47:53;4.25;;;1.80;;
28343;SDS011;15597;50.914;6.638;2023-07-31T08:50:21;4.15;;;1.58;;
28343;SDS011;15597;50.914;6.638;2023-07-31T08:52:49;5.57;;;1.50;;
28343;SDS011;15597;50.914;6.638;2023-07-31T08:55:16;4.00;;;1.67;;
28343;SDS011;15597;50.914;6.638;2023-07-31T08:57:42;3.45;;;1.48;;
28343;SDS011;15597;50.914;6.638;2023-07-31T09:00:09;4.30;;;1.50;;
28343;SDS011;15597;50.914;6.638;2023-07-31T09:02:46;3.20;;;1.40;;
28343;SDS011;15597;50.914;6.638;2023-07-31T09:05:17;4.72;;;1.60;;
28343;SDS011;15597;50.914;6.638;2023-07-31T09:07:45;5.68;;;1.60;;
28343;SDS011;15597;50.914;6.638;2023-07-31T09:10:12;5.32;;;1.55;;
28343;SDS011;15597;50.914;6.638;2023-07-31T09:12:38;5.07;;;1.67;;
28343;SDS011;15597;50.914;6.638;2023-07-31T09:15:04;3.30;;;1.40;;
28343;SDS011;15597;50.914;6.638;2023-07-31T09:17:31;4.13;;;1.60;;
28343;SDS011;15597;50.914;6.638;2023-07-31T09:22:40;3.60;;;1.55;;
28343;SDS011;15597;50.914;6.638;2023-07-31T09:25:14;4.50;;;1.75;;
28343;SDS011;15597;50.914;6.638;2023-07-31T09:27:58;4.07;;;1.60;;
28343;SDS011;15597;50.914;6.638;2023-07-31T09:30:26;3.97;;;1.60;;
28343;SDS011;15597;50.914;6.638;2023-07-31T09:32:59;4.43;;;1.80;;
28343;SDS011;15597;50.914;6.638;2023-07-31T09:35:30;4.65;;;1.50;;
28343;SDS011;15597;50.914;6.638;2023-07-31T09:37:58;4.72;;;1.80;;
28343;SDS011;15597;50.914;6.638;2023-07-31T09:40:34;3.65;;;1.70;;
28343;SDS011;15597;50.914;6.638;2023-07-31T09:43:02;4.38;;;1.73;;
28343;SDS011;15597;50.914;6.638;2023-07-31T09:45:30;5.57;;;1.50;;
28343;SDS011;15597;50.914;6.638;2023-07-31T09:47:59;4.03;;;1.50;;
28343;SDS011;15597;50.914;6.638;2023-07-31T09:50:25;4.35;;;1.70;;
28343;SDS011;15597;50.914;6.638;2023-07-31T09:52:51;3.97;;;1.35;;
28343;SDS011;15597;50.914;6.638;2023-07-31T09:55:18;5.45;;;1.88;;
28343;SDS011;15597;50.914;6.638;2023-07-31T09:57:46;5.80;;;1.80;;
28343;SDS011;15597;50.914;6.638;2023-07-31T10:00:13;4.55;;;1.58;;
28343;SDS011;15597;50.914;6.638;2023-07-31T10:02:40;5.68;;;1.70;;
28343;SDS011;15597;50.914;6.638;2023-07-31T10:05:06;5.13;;;1.63;;
28343;SDS011;15597;50.914;6.638;2023-07-31T10:07:37;5.07;;;1.83;;
28343;SDS011;15597;50.914;6.638;2023-07-31T10:10:04;3.90;;;1.48;;
28343;SDS011;15597;50.914;6.638;2023-07-31T10:12:33;6.57;;;1.63;;
28343;SDS011;15597;50.914;6.638;2023-07-31T10:15:00;4.50;;;1.60;;
28343;SDS011;15597;50.914;6.638;2023-07-31T10:17:26;5.10;;;1.70;;
28343;SDS011;15597;50.914;6.638;2023-07-31T10:19:52;2.88;;;1.30;;
28343;SDS011;15597;50.914;6.638;2023-07-31T10:22:19;5.85;;;1.80;;
28343;SDS011;15597;50.914;6.638;2023-07-31T10:24:46;4.75;;;1.67;;
28343;SDS011;15597;50.914;6.638;2023-07-31T10:27:12;4.90;;;1.50;;
28343;SDS011;15597;50.914;6.638;2023-07-31T10:29:38;4.60;;;1.50;;
28343;SDS011;15597;50.914;6.638;2023-07-31T10:32:05;5.00;;;1.80;;
28343;SDS011;15597;50.914;6.638;2023-07-31T10:34:35;3.38;;;1.48;;
28343;SDS011;15597;50.914;6.638;2023-07-31T10:37:19;4.40;;;1.40;;
28343;SDS011;15597;50.914;6.638;2023-07-31T10:39:45;3.60;;;1.30;;
28343;SDS011;15597;50.914;6.638;2023-07-31T10:42:30;3.10;;;1.15;;
28343;SDS011;15597;50.914;6.638;2023-07-31T10:44:57;4.10;;;1.30;;
28343;SDS011;15597;50.914;6.638;2023-07-31T10:47:23;4.47;;;1.20;;
28343;SDS011;15597;50.914;6.638;2023-07-31T10:49:49;3.65;;;1.38;;
28343;SDS011;15597;50.914;6.638;2023-07-31T10:52:16;3.58;;;1.20;;
28343;SDS011;15597;50.914;6.638;2023-07-31T10:54:48;3.03;;;1.10;;
28343;SDS011;15597;50.914;6.638;2023-07-31T10:57:21;4.00;;;1.23;;
28343;SDS011;15597;50.914;6.638;2023-07-31T10:59:48;4.05;;;1.25;;
28343;SDS011;15597;50.914;6.638;2023-07-31T11:02:25;3.40;;;1.10;;
28343;SDS011;15597;50.914;6.638;2023-07-31T11:05:10;3.20;;;1.30;;
28343;SDS011;15597;50.914;6.638;2023-07-31T11:07:49;3.65;;;1.40;;
28343;SDS011;15597;50.914;6.638;2023-07-31T11:10:18;2.42;;;1.10;;
28343;SDS011;15597;50.914;6.638;2023-07-31T11:12:50;3.05;;;1.20;;
28343;SDS011;15597;50.914;6.638;2023-07-31T11:15:16;2.95;;;1.00;;
28343;SDS011;15597;50.914;6.638;2023-07-31T11:17:42;2.70;;;1.10;;
28343;SDS011;15597;50.914;6.638;2023-07-31T11:20:07;3.30;;;1.13;;
28343;SDS011;15597;50.914;6.638;2023-07-31T11:22:34;2.85;;;1.00;;
28343;SDS011;15597;50.914;6.638;2023-07-31T11:25:02;1.90;;;0.80;;
28343;SDS011;15597;50.914;6.638;2023-07-31T11:30:04;7.38;;;1.13;;
28343;SDS011;15597;50.914;6.638;2023-07-31T11:32:30;3.20;;;1.25;;
28343;SDS011;15597;50.914;6.638;2023-07-31T11:34:56;3.88;;;1.20;;
28343;SDS011;15597;50.914;6.638;2023-07-31T11:37:22;2.65;;;0.98;;
28343;SDS011;15597;50.914;6.638;2023-07-31T11:40:00;3.10;;;1.00;;
28343;SDS011;15597;50.914;6.638;2023-07-31T11:42:26;3.28;;;1.20;;
28343;SDS011;15597;50.914;6.638;2023-07-31T11:44:52;2.85;;;1.10;;
28343;SDS011;15597;50.914;6.638;2023-07-31T11:47:17;3.05;;;1.10;;
28343;SDS011;15597;50.914;6.638;2023-07-31T11:49:43;2.45;;;1.00;;
28343;SDS011;15597;50.914;6.638;2023-07-31T11:52:09;3.90;;;1.00;;
28343;SDS011;15597;50.914;6.638;2023-07-31T11:54:37;2.67;;;1.10;;
28343;SDS011;15597;50.914;6.638;2023-07-31T11:57:03;2.38;;;1.10;;
28343;SDS011;15597;50.914;6.638;2023-07-31T11:59:30;2.83;;;1.30;;
28343;SDS011;15597;50.914;6.638;2023-07-31T12:01:56;2.65;;;0.80;;
28343;SDS011;15597;50.914;6.638;2023-07-31T12:04:22;2.63;;;1.00;;
28343;SDS011;15597;50.914;6.638;2023-07-31T12:06:49;2.30;;;1.10;;
28343;SDS011;15597;50.914;6.638;2023-07-31T12:09:17;6.88;;;1.10;;
28343;SDS011;15597;50.914;6.638;2023-07-31T12:11:46;2.47;;;1.10;;
28343;SDS011;15597;50.914;6.638;2023-07-31T12:14:25;3.47;;;1.27;;
28343;SDS011;15597;50.914;6.638;2023-07-31T12:16:53;3.80;;;1.30;;
28343;SDS011;15597;50.914;6.638;2023-07-31T12:19:20;3.35;;;1.35;;
28343;SDS011;15597;50.914;6.638;2023-07-31T12:21:45;3.25;;;1.20;;
28343;SDS011;15597;50.914;6.638;2023-07-31T12:24:11;4.30;;;1.35;;
28343;SDS011;15597;50.914;6.638;2023-07-31T12:26:37;4.90;;;1.20;;
28343;SDS011;15597;50.914;6.638;2023-07-31T12:29:04;3.40;;;1.33;;
28343;SDS011;15597;50.914;6.638;2023-07-31T12:31:33;8.10;;;1.60;;
28343;SDS011;15597;50.914;6.638;2023-07-31T12:33:59;4.30;;;1.20;;
28343;SDS011;15597;50.914;6.638;2023-07-31T12:36:24;4.90;;;1.60;;
28343;SDS011;15597;50.914;6.638;2023-07-31T12:38:50;3.75;;;1.50;;
28343;SDS011;15597;50.914;6.638;2023-07-31T12:41:17;3.20;;;1.17;;
28343;SDS011;15597;50.914;6.638;2023-07-31T12:43:44;3.25;;;1.38;;
28343;SDS011;15597;50.914;6.638;2023-07-31T12:46:10;3.90;;;1.40;;
28343;SDS011;15597;50.914;6.638;2023-07-31T12:48:37;3.63;;;1.50;;
28343;SDS011;15597;50.914;6.638;2023-07-31T12:51:03;3.22;;;1.20;;
28343;SDS011;15597;50.914;6.638;2023-07-31T12:53:29;3.35;;;1.25;;
28343;SDS011;15597;50.914;6.638;2023-07-31T12:55:55;4.20;;;1.50;;
28343;SDS011;15597;50.914;6.638;2023-07-31T12:58:21;3.17;;;1.33;;
28343;SDS011;15597;50.914;6.638;2023-07-31T13:00:47;3.67;;;1.40;;
28343;SDS011;15597;50.914;6.638;2023-07-31T13:03:12;4.13;;;1.20;;
28343;SDS011;15597;50.914;6.638;2023-07-31T13:05:38;4.45;;;1.40;;
28343;SDS011;15597;50.914;6.638;2023-07-31T13:08:03;3.17;;;1.30;;
28343;SDS011;15597;50.914;6.638;2023-07-31T13:10:29;3.30;;;1.30;;
28343;SDS011;15597;50.914;6.638;2023-07-31T13:12:55;2.53;;;1.10;;
28343;SDS011;15597;50.914;6.638;2023-07-31T13:15:21;4.10;;;1.30;;
28343;SDS011;15597;50.914;6.638;2023-07-31T13:17:47;2.88;;;1.38;;
28343;SDS011;15597;50.914;6.638;2023-07-31T13:20:12;4.22;;;1.35;;
28343;SDS011;15597;50.914;6.638;2023-07-31T13:22:38;4.13;;;1.40;;
28343;SDS011;15597;50.914;6.638;2023-07-31T13:25:04;3.25;;;1.40;;
28343;SDS011;15597;50.914;6.638;2023-07-31T13:27:30;4.32;;;1.40;;
28343;SDS011;15597;50.914;6.638;2023-07-31T13:29:56;2.60;;;1.10;;
28343;SDS011;15597;50.914;6.638;2023-07-31T13:32:21;3.65;;;1.30;;
28343;SDS011;15597;50.914;6.638;2023-07-31T13:34:47;4.25;;;1.30;;
28343;SDS011;15597;50.914;6.638;2023-07-31T13:37:13;3.83;;;1.40;;
28343;SDS011;15597;50.914;6.638;2023-07-31T13:39:39;3.83;;;1.50;;
28343;SDS011;15597;50.914;6.638;2023-07-31T13:42:05;10.25;;;1.55;;
28343;SDS011;15597;50.914;6.638;2023-07-31T13:44:36;2.60;;;1.20;;
28343;SDS011;15597;50.914;6.638;2023-07-31T13:47:02;3.35;;;1.40;;
28343;SDS011;15597;50.914;6.638;2023-07-31T13:49:28;2.88;;;1.10;;
28343;SDS011;15597;50.914;6.638;2023-07-31T13:51:54;3.85;;;1.30;;
28343;SDS011;15597;50.914;6.638;2023-07-31T13:54:20;3.20;;;1.30;;
28343;SDS011;15597;50.914;6.638;2023-07-31T13:56:47;3.25;;;1.33;;
28343;SDS011;15597;50.914;6.638;2023-07-31T13:59:13;3.22;;;1.40;;
28343;SDS011;15597;50.914;6.638;2023-07-31T14:01:45;4.28;;;1.70;;
28343;SDS011;15597;50.914;6.638;2023-07-31T14:04:11;3.13;;;1.30;;
28343;SDS011;15597;50.914;6.638;2023-07-31T14:06:37;3.58;;;1.50;;
28343;SDS011;15597;50.914;6.638;2023-07-31T14:09:03;3.03;;;1.25;;
28343;SDS011;15597;50.914;6.638;2023-07-31T14:11:30;2.92;;;1.20;;
28343;SDS011;15597;50.914;6.638;2023-07-31T14:13:56;4.05;;;1.50;;
28343;SDS011;15597;50.914;6.638;2023-07-31T14:16:25;3.65;;;1.60;;
28343;SDS011;15597;50.914;6.638;2023-07-31T14:18:51;4.78;;;1.80;;
28343;SDS011;15597;50.914;6.638;2023-07-31T14:21:18;4.00;;;1.60;;
28343;SDS011;15597;50.914;6.638;2023-07-31T14:23:44;7.03;;;2.03;;
28343;SDS011;15597;50.914;6.638;2023-07-31T14:26:10;3.55;;;1.63;;
28343;SDS011;15597;50.914;6.638;2023-07-31T14:28:36;4.18;;;1.77;;
28343;SDS011;15597;50.914;6.638;2023-07-31T14:31:01;3.97;;;1.90;;
28343;SDS011;15597;50.914;6.638;2023-07-31T14:33:27;4.97;;;2.22;;
28343;SDS011;15597;50.914;6.638;2023-07-31T14:35:52;4.32;;;1.90;;
28343;SDS011;15597;50.914;6.638;2023-07-31T14:38:18;3.72;;;1.70;;
28343;SDS011;15597;50.914;6.638;2023-07-31T14:40:43;4.22;;;1.70;;
28343;SDS011;15597;50.914;6.638;2023-07-31T14:43:09;4.28;;;1.67;;
28343;SDS011;15597;50.914;6.638;2023-07-31T14:45:35;3.83;;;1.73;;
28343;SDS011;15597;50.914;6.638;2023-07-31T14:48:00;3.70;;;1.70;;
28343;SDS011;15597;50.914;6.638;2023-07-31T14:50:26;3.97;;;1.80;;
28343;SDS011;15597;50.914;6.638;2023-07-31T14:52:51;5.78;;;1.98;;
28343;SDS011;15597;50.914;6.638;2023-07-31T14:55:20;4.88;;;2.17;;
28343;SDS011;15597;50.914;6.638;2023-07-31T14:57:46;4.45;;;1.80;;
28343;SDS011;15597;50.914;6.638;2023-07-31T15:00:11;3.72;;;1.60;;